Time;durP1;ratioP1;P1;durP2;ratioP2;P2;SDS_P1;SDS_P2;PMS_P1;PMS_P2;Temp;Humidity;BMP_temperature;BMP_pressure;BME280_temperature;BME280_humidity;BME280_pressure;Samples;Min_cycle;Max_cycle;Signal;HPM_P1;HPM_P2
2023/12/18 00:00:10;;;;;;;12.25;2.20;;;;;;;;;;5014927;28;21393;-59
2023/12/18 00:02:37;;;;;;;;;;;;;;;;;;5014554;28;20042;-58
2023/12/18 00:05:12;;;;;;;10.98;1.83;;;;;;;;;;5011291;28;20576;-58
2023/12/18 00:07:39;;;;;;;6.45;2.03;;;;;;;;;;5017253;28;20136;-59
2023/12/18 00:10:07;;;;;;;;;;;;;;;;;;5012104;28;20045;-59
2023/12/18 00:13:01;;;;;;;10.77;2.13;;;;;;;;;;5012534;28;19925;-59
2023/12/18 00:15:48;;;;;;;9.60;1.63;;;;;;;;;;5014989;28;20041;-62
2023/12/18 00:18:22;;;;;;;14.85;2.17;;;;;;;;;;5016100;28;20088;-63
2023/12/18 00:20:50;;;;;;;10.63;1.83;;;;;;;;;;5013603;28;20041;-62
2023/12/18 00:23:17;;;;;;;14.52;2.60;;;;;;;;;;5015521;28;20575;-63
2023/12/18 00:25:51;;;;;;;11.93;2.10;;;;;;;;;;4997235;28;20045;-63
2023/12/18 00:28:18;;;;;;;17.13;2.53;;;;;;;;;;5013316;28;20398;-62
2023/12/18 00:30:52;;;;;;;13.90;2.83;;;;;;;;;;5013007;28;20049;-56
2023/12/18 00:33:19;;;;;;;;;;;;;;;;;;5011970;28;20042;-56
2023/12/18 00:35:46;;;;;;;15.25;2.72;;;;;;;;;;5011297;28;20904;-55
2023/12/18 00:38:26;;;;;;;15.27;2.80;;;;;;;;;;5013607;28;20515;-57
2023/12/18 00:40:54;;;;;;;22.15;2.97;;;;;;;;;;5014913;28;20298;-55
2023/12/18 00:43:28;;;;;;;19.13;2.50;;;;;;;;;;5013075;28;20053;-62
2023/12/18 00:45:55;;;;;;;15.98;2.22;;;;;;;;;;5009677;28;20049;-62
2023/12/18 00:48:23;;;;;;;19.58;2.60;;;;;;;;;;5014614;28;20068;-62
2023/12/18 00:50:57;;;;;;;20.90;3.30;;;;;;;;;;5013886;28;20046;-62
2023/12/18 00:53:24;;;;;;;15.60;2.83;;;;;;;;;;5017956;28;20126;-62
2023/12/18 00:55:52;;;;;;;20.50;2.60;;;;;;;;;;5014904;28;20435;-62
2023/12/18 00:58:26;;;;;;;13.65;2.30;;;;;;;;;;5015482;28;20518;-68
2023/12/18 01:00:53;;;;;;;23.23;3.10;;;;;;;;;;5012387;28;20098;-67
2023/12/18 01:03:27;;;;;;;14.30;3.10;;;;;;;;;;5012456;28;20765;-66
2023/12/18 01:05:54;;;;;;;26.67;2.80;;;;;;;;;;5011387;28;20046;-68
2023/12/18 01:08:21;;;;;;;17.10;3.15;;;;;;;;;;5015587;28;20053;-63
2023/12/18 01:10:55;;;;;;;23.60;3.33;;;;;;;;;;5014913;28;20103;-63
2023/12/18 01:13:22;;;;;;;17.63;2.92;;;;;;;;;;5016478;28;20054;-63
2023/12/18 01:15:56;;;;;;;22.85;2.78;;;;;;;;;;5012181;28;20107;-62
2023/12/18 01:18:24;;;;;;;15.75;2.58;;;;;;;;;;5011324;28;20057;-62
2023/12/18 01:20:51;;;;;;;14.35;2.35;;;;;;;;;;5013844;28;20042;-62
2023/12/18 01:23:26;;;;;;;13.63;2.30;;;;;;;;;;5010783;28;20049;-62
2023/12/18 01:25:53;;;;;;;23.35;2.70;;;;;;;;;;5012109;28;20084;-60
2023/12/18 01:28:20;;;;;;;19.38;2.58;;;;;;;;;;5009301;28;20064;-68
2023/12/18 01:30:54;;;;;;;14.00;2.55;;;;;;;;;;5006996;28;20538;-54
2023/12/18 01:33:21;;;;;;;16.45;2.72;;;;;;;;;;5004863;28;20316;-54
2023/12/18 01:36:07;;;;;;;11.95;2.25;;;;;;;;;;5011952;28;20151;-53
2023/12/18 01:38:42;;;;;;;21.17;2.53;;;;;;;;;;5015521;28;20049;-54
2023/12/18 01:41:16;;;;;;;10.98;1.80;;;;;;;;;;5019022;28;20055;-52
2023/12/18 01:43:43;;;;;;;;;;;;;;;;;;5016622;28;20061;-56
2023/12/18 01:46:15;;;;;;;12.02;2.05;;;;;;;;;;5013362;28;19925;-54
2023/12/18 01:48:50;;;;;;;12.90;2.45;;;;;;;;;;5017272;28;20041;-59
2023/12/18 01:51:18;;;;;;;10.70;2.03;;;;;;;;;;5019370;28;20515;-59
2023/12/18 01:53:55;;;;;;;12.88;1.75;;;;;;;;;;5020104;28;20054;-59
2023/12/18 01:56:25;;;;;;;8.48;2.05;;;;;;;;;;5018320;28;20072;-60
2023/12/18 01:58:54;;;;;;;10.52;1.85;;;;;;;;;;5020666;28;20751;-60
2023/12/18 02:01:29;;;;;;;10.13;1.70;;;;;;;;;;5014419;28;20084;-59
2023/12/18 02:03:56;;;;;;;12.95;2.15;;;;;;;;;;5014943;28;20045;-62
2023/12/18 02:06:24;;;;;;;10.15;1.75;;;;;;;;;;5013219;28;20053;-62
2023/12/18 02:08:58;;;;;;;11.45;2.20;;;;;;;;;;5019827;28;20041;-62
2023/12/18 02:11:26;;;;;;;8.15;1.90;;;;;;;;;;5019875;28;20099;-63
2023/12/18 02:14:00;;;;;;;9.23;1.45;;;;;;;;;;5018188;28;20111;-60
2023/12/18 02:16:47;;;;;;;11.35;1.70;;;;;;;;;;5017522;28;20088;-49
2023/12/18 02:19:41;;;;;;;11.52;2.10;;;;;;;;;;5017469;28;20567;-49
2023/12/18 02:22:28;;;;;;;11.07;2.00;;;;;;;;;;5011398;28;20053;-53
2023/12/18 02:25:22;;;;;;;12.60;1.90;;;;;;;;;;5013252;28;20057;-53
2023/12/18 02:28:10;;;;;;;17.30;1.80;;;;;;;;;;5017626;28;20045;-52
2023/12/18 02:31:04;;;;;;;15.52;2.45;;;;;;;;;;5018642;28;20077;-62
2023/12/18 02:33:58;;;;;;;16.10;2.38;;;;;;;;;;5011101;28;20050;-62
2023/12/18 02:36:59;;;;;;;12.25;2.45;;;;;;;;;;5012749;28;20227;-61
2023/12/18 02:39:52;;;;;;;17.15;2.15;;;;;;;;;;5017221;28;20042;-62
2023/12/18 02:42:47;;;;;;;13.05;2.30;;;;;;;;;;5014314;28;20045;-66
2023/12/18 02:45:34;;;;;;;15.77;3.08;;;;;;;;;;5013785;28;20046;-69
2023/12/18 02:48:28;;;;;;;13.50;1.90;;;;;;;;;;5009714;28;20524;-68
2023/12/18 02:51:15;;;;;;;17.58;2.00;;;;;;;;;;5012730;28;20057;-69
2023/12/18 02:54:09;;;;;;;6.22;1.92;;;;;;;;;;5015291;28;20051;-68
2023/12/18 02:56:56;;;;;;;7.68;1.70;;;;;;;;;;5017142;28;20056;-69
2023/12/18 02:59:50;;;;;;;6.28;2.10;;;;;;;;;;5013602;28;20056;-61
2023/12/18 03:02:38;;;;;;;19.73;2.50;;;;;;;;;;5013352;28;20481;-60
2023/12/18 03:05:32;;;;;;;15.38;1.70;;;;;;;;;;5021838;28;20667;-60
2023/12/18 03:08:26;;;;;;;13.98;2.10;;;;;;;;;;5018045;28;20111;-60
2023/12/18 03:11:13;;;;;;;15.80;2.50;;;;;;;;;;5017273;28;20053;-58
2023/12/18 03:14:07;;;;;;;9.05;2.13;;;;;;;;;;5018957;28;20048;-59
2023/12/18 03:17:01;;;;;;;15.98;1.90;;;;;;;;;;5017798;28;20061;-59
2023/12/18 03:19:48;;;;;;;15.48;2.08;;;;;;;;;;5018269;28;20045;-60
2023/12/18 03:22:42;;;;;;;6.50;1.60;;;;;;;;;;5015124;28;20527;-59
2023/12/18 03:25:29;;;;;;;10.70;2.00;;;;;;;;;;5016296;28;20425;-59
2023/12/18 03:28:23;;;;;;;15.90;2.28;;;;;;;;;;5016651;28;20083;-62
2023/12/18 03:31:10;;;;;;;16.60;1.80;;;;;;;;;;5015490;28;20045;-62
2023/12/18 03:34:04;;;;;;;9.43;1.90;;;;;;;;;;5013893;28;20096;-62
2023/12/18 03:36:57;;;;;;;14.27;2.10;;;;;;;;;;5008529;28;20050;-62
2023/12/18 03:39:51;;;;;;;21.30;2.20;;;;;;;;;;4996073;28;20049;-54
2023/12/18 03:42:40;;;;;;;15.13;2.38;;;;;;;;;;4998275;28;21001;-59
2023/12/18 03:45:33;;;;;;;15.73;2.20;;;;;;;;;;4995968;28;20081;-59
2023/12/18 03:48:20;;;;;;;13.02;2.30;;;;;;;;;;4993889;28;20183;-59
2023/12/18 03:51:14;;;;;;;8.25;1.63;;;;;;;;;;4998896;28;20073;-59
2023/12/18 03:54:01;;;;;;;11.38;1.98;;;;;;;;;;4999926;28;20053;-59
2023/12/18 03:56:55;;;;;;;9.38;1.70;;;;;;;;;;5003723;28;20053;-51
2023/12/18 03:59:42;;;;;;;14.45;2.15;;;;;;;;;;4998916;28;20049;-53
2023/12/18 04:02:36;;;;;;;19.05;2.33;;;;;;;;;;4995074;28;20046;-52
2023/12/18 04:05:26;;;;;;;11.65;2.20;;;;;;;;;;4997164;28;20050;-51
2023/12/18 04:08:20;;;;;;;18.42;2.55;;;;;;;;;;4997589;28;20057;-60
2023/12/18 04:11:16;;;;;;;21.05;2.75;;;;;;;;;;4996922;28;20065;-62
2023/12/18 04:14:10;;;;;;;18.63;2.33;;;;;;;;;;4995007;28;22240;-62
2023/12/18 04:17:04;;;;;;;15.93;2.65;;;;;;;;;;4995783;28;20049;-62
2023/12/18 04:19:51;;;;;;;16.75;2.28;;;;;;;;;;4992430;28;20046;-62
2023/12/18 04:22:45;;;;;;;13.50;2.75;;;;;;;;;;4996204;28;20119;-63
2023/12/18 04:25:32;;;;;;;19.23;2.75;;;;;;;;;;4995591;28;20042;-52
2023/12/18 04:28:26;;;;;;;20.60;2.67;;;;;;;;;;4994892;28;20066;-52
2023/12/18 04:31:17;;;;;;;16.70;2.38;;;;;;;;;;4993588;28;20050;-50
2023/12/18 04:34:11;;;;;;;15.95;2.33;;;;;;;;;;4996393;28;20050;-51
2023/12/18 04:37:05;;;;;;;14.32;2.70;;;;;;;;;;5001007;28;20050;-59
2023/12/18 04:40:00;;;;;;;14.52;2.38;;;;;;;;;;5012839;28;20053;-56
2023/12/18 04:42:47;;;;;;;12.40;2.58;;;;;;;;;;5010630;28;20057;-56
2023/12/18 04:45:48;;;;;;;21.38;2.85;;;;;;;;;;5013816;28;20520;-56
2023/12/18 04:48:35;;;;;;;12.02;2.85;;;;;;;;;;5008321;28;20570;-53
2023/12/18 04:51:29;;;;;;;16.27;2.78;;;;;;;;;;5011205;28;20037;-52
2023/12/18 04:54:16;;;;;;;16.20;2.88;;;;;;;;;;5015538;28;20056;-63
2023/12/18 04:57:10;;;;;;;15.57;2.45;;;;;;;;;;5008842;28;20049;-63
2023/12/18 04:59:57;;;;;;;15.70;2.67;;;;;;;;;;5011897;28;20048;-63
2023/12/18 05:02:51;;;;;;;22.40;2.92;;;;;;;;;;5011506;28;20045;-63
2023/12/18 05:05:38;;;;;;;15.10;2.75;;;;;;;;;;5014816;28;20446;-63
2023/12/18 05:08:32;;;;;;;24.15;2.40;;;;;;;;;;5015932;28;20129;-60
2023/12/18 05:11:20;;;;;;;16.23;2.60;;;;;;;;;;5018573;28;20041;-60
2023/12/18 05:14:14;;;;;;;14.50;2.67;;;;;;;;;;5020037;28;20049;-60
2023/12/18 05:17:01;;;;;;;17.08;2.75;;;;;;;;;;5018439;28;20102;-60
2023/12/18 05:19:55;;;;;;;12.45;2.67;;;;;;;;;;5019617;28;20139;-60
2023/12/18 05:22:42;;;;;;;17.88;3.17;;;;;;;;;;5018404;28;20057;-57
2023/12/18 05:25:36;;;;;;;15.73;2.75;;;;;;;;;;5016214;28;20061;-57
2023/12/18 05:28:23;;;;;;;15.30;1.88;;;;;;;;;;5014571;28;20054;-57
2023/12/18 05:31:18;;;;;;;22.13;2.35;;;;;;;;;;5011796;28;20473;-56
2023/12/18 05:34:04;;;;;;;9.90;2.28;;;;;;;;;;5014599;28;20053;-58
2023/12/18 05:37:05;;;;;;;18.30;3.03;;;;;;;;;;5013245;28;20476;-69
2023/12/18 05:39:59;;;;;;;14.00;1.95;;;;;;;;;;5013951;28;20061;-69
2023/12/18 05:42:53;;;;;;;10.80;2.15;;;;;;;;;;5014182;28;20998;-69
2023/12/18 05:45:40;;;;;;;8.45;2.17;;;;;;;;;;5011794;28;20046;-69
2023/12/18 05:48:34;;;;;;;12.30;2.70;;;;;;;;;;5013438;28;20081;-70
2023/12/18 05:51:22;;;;;;;9.65;1.90;;;;;;;;;;5013748;28;20049;-70
2023/12/18 05:54:22;;;;;;;8.65;2.08;;;;;;;;;;5016287;28;20497;-70
2023/12/18 05:57:09;;;;;;;12.02;2.50;;;;;;;;;;5015019;28;21583;-70
2023/12/18 06:00:07;;;;;;;9.80;2.25;;;;;;;;;;5017438;28;20137;-70
2023/12/18 06:03:01;;;;;;;7.32;2.20;;;;;;;;;;5007113;28;20052;-69
2023/12/18 06:05:48;;;;;;;10.38;2.25;;;;;;;;;;5006959;28;20460;-69
2023/12/18 06:08:42;;;;;;;7.13;1.90;;;;;;;;;;5015632;28;20057;-61
2023/12/18 06:11:29;;;;;;;5.47;1.75;;;;;;;;;;5017088;28;20460;-59
2023/12/18 06:14:23;;;;;;;3.92;1.67;;;;;;;;;;5015696;28;20065;-58
2023/12/18 06:17:10;;;;;;;5.47;2.00;;;;;;;;;;5015870;28;20489;-60
2023/12/18 06:20:05;;;;;;;6.07;1.90;;;;;;;;;;5015992;28;20057;-59
2023/12/18 06:22:51;;;;;;;5.28;1.75;;;;;;;;;;5013934;28;20049;-59
2023/12/18 06:25:45;;;;;;;12.85;2.10;;;;;;;;;;5014815;28;20057;-59
2023/12/18 06:28:32;;;;;;;7.03;2.40;;;;;;;;;;5014829;28;20108;-59
2023/12/18 06:31:26;;;;;;;8.25;1.67;;;;;;;;;;5013946;28;20045;-60
2023/12/18 06:34:13;;;;;;;6.80;1.70;;;;;;;;;;5015867;28;20064;-60
2023/12/18 06:37:20;;;;;;;6.20;1.90;;;;;;;;;;5016434;28;20148;-62
2023/12/18 06:40:07;;;;;;;8.75;2.13;;;;;;;;;;5016828;28;20057;-61
2023/12/18 06:43:01;;;;;;;7.68;1.50;;;;;;;;;;5017777;28;20136;-59
2023/12/18 06:45:48;;;;;;;6.65;1.58;;;;;;;;;;5014377;28;20041;-59
2023/12/18 06:48:42;;;;;;;9.63;1.70;;;;;;;;;;5017989;28;20041;-59
2023/12/18 06:51:29;;;;;;;5.00;1.50;;;;;;;;;;5014647;28;20494;-59
2023/12/18 06:54:23;;;;;;;5.63;1.75;;;;;;;;;;5015929;28;20417;-59
2023/12/18 06:57:17;;;;;;;4.32;1.40;;;;;;;;;;5015370;28;20050;-56
2023/12/18 07:00:05;;;;;;;4.78;1.50;;;;;;;;;;5016157;28;20045;-56
2023/12/18 07:03:07;;;;;;;8.00;1.77;;;;;;;;;;5017594;28;20057;-58
2023/12/18 07:05:58;;;;;;;4.53;1.50;;;;;;;;;;5014748;28;20057;-61
2023/12/18 07:08:52;;;;;;;8.68;1.63;;;;;;;;;;5017562;28;20052;-62
2023/12/18 07:11:39;;;;;;;8.68;1.85;;;;;;;;;;5018745;28;20041;-63
2023/12/18 07:14:33;;;;;;;3.25;1.58;;;;;;;;;;5014942;28;20307;-62
2023/12/18 07:17:20;;;;;;;5.57;1.55;;;;;;;;;;5014531;28;20103;-63
2023/12/18 07:20:14;;;;;;;3.17;1.67;;;;;;;;;;5017375;28;20144;-63
2023/12/18 07:23:01;;;;;;;5.85;1.60;;;;;;;;;;5013862;28;20042;-63
2023/12/18 07:25:55;;;;;;;3.70;1.45;;;;;;;;;;5015535;28;20123;-56
2023/12/18 07:28:45;;;;;;;3.05;1.40;;;;;;;;;;5015472;28;20402;-56
2023/12/18 07:31:39;;;;;;;4.15;1.85;;;;;;;;;;5015351;28;20053;-56
2023/12/18 07:34:26;;;;;;;7.55;1.85;;;;;;;;;;5016760;28;20038;-49
2023/12/18 07:37:30;;;;;;;5.53;1.80;;;;;;;;;;5014800;28;20050;-57
2023/12/18 07:40:17;;;;;;;3.92;1.55;;;;;;;;;;5014279;28;21052;-56
2023/12/18 07:43:11;;;;;;;6.20;1.73;;;;;;;;;;5013857;28;20053;-57
2023/12/18 07:45:58;;;;;;;4.85;1.58;;;;;;;;;;5011534;28;20060;-56
2023/12/18 07:48:52;;;;;;;5.60;1.60;;;;;;;;;;5016699;28;20081;-53
2023/12/18 07:51:39;;;;;;;6.15;1.67;;;;;;;;;;5014991;28;20489;-54
2023/12/18 07:54:33;;;;;;;3.78;1.80;;;;;;;;;;5016457;28;20571;-60
2023/12/18 07:57:20;;;;;;;5.47;1.45;;;;;;;;;;5016807;28;20103;-60
2023/12/18 08:00:14;;;;;;;4.32;1.65;;;;;;;;;;5019200;28;20481;-61
2023/12/18 08:03:08;;;;;;;2.45;1.40;;;;;;;;;;5018017;28;20049;-68
2023/12/18 08:05:55;;;;;;;5.00;1.00;;;;;;;;;;5016682;28;20045;-59
2023/12/18 08:08:49;;;;;;;1.58;0.90;;;;;;;;;;5016014;28;20497;-60
2023/12/18 08:11:36;;;;;;;3.25;1.10;;;;;;;;;;5012950;28;20346;-60
2023/12/18 08:14:30;;;;;;;4.78;1.48;;;;;;;;;;5015737;28;20475;-60
2023/12/18 08:17:17;;;;;;;3.80;1.60;;;;;;;;;;5015461;28;20509;-61
2023/12/18 08:20:11;;;;;;;3.60;1.15;;;;;;;;;;5012886;28;20095;-60
2023/12/18 08:22:58;;;;;;;2.97;1.10;;;;;;;;;;5017229;28;20049;-60
2023/12/18 08:25:52;;;;;;;2.60;1.13;;;;;;;;;;5013849;28;20444;-60
2023/12/18 08:28:43;;;;;;;3.13;1.38;;;;;;;;;;5011263;28;20456;-61
2023/12/18 08:31:37;;;;;;;3.72;1.50;;;;;;;;;;5014611;28;20138;-48
2023/12/18 08:34:24;;;;;;;1.85;1.08;;;;;;;;;;5016306;28;20053;-63
2023/12/18 08:37:25;;;;;;;2.63;1.27;;;;;;;;;;5014243;28;20060;-63
2023/12/18 08:40:25;;;;;;;2.67;1.40;;;;;;;;;;5012802;28;20045;-64
2023/12/18 08:43:13;;;;;;;4.72;1.35;;;;;;;;;;5013191;28;20053;-63
2023/12/18 08:46:08;;;;;;;6.10;1.60;;;;;;;;;;5014610;28;20057;-62
2023/12/18 08:48:56;;;;;;;5.82;1.70;;;;;;;;;;5015354;28;20199;-62
2023/12/18 08:51:49;;;;;;;2.38;1.50;;;;;;;;;;5015104;28;20575;-69
2023/12/18 08:54:36;;;;;;;6.57;1.60;;;;;;;;;;5013870;28;20099;-69
2023/12/18 08:57:30;;;;;;;5.88;1.50;;;;;;;;;;5014261;28;20061;-69
2023/12/18 09:00:17;;;;;;;7.03;1.60;;;;;;;;;;5017672;28;20065;-59
2023/12/18 09:03:11;;;;;;;4.35;1.52;;;;;;;;;;5014703;28;20053;-61
2023/12/18 09:05:58;;;;;;;6.28;2.05;;;;;;;;;;5014657;28;20042;-60
2023/12/18 09:08:52;;;;;;;7.40;2.08;;;;;;;;;;5013188;28;20271;-60
2023/12/18 09:11:39;;;;;;;6.90;2.13;;;;;;;;;;5011369;28;20045;-61
2023/12/18 09:14:33;;;;;;;9.30;2.42;;;;;;;;;;5014332;28;20046;-60
2023/12/18 09:17:20;;;;;;;6.88;2.15;;;;;;;;;;5009927;28;20597;-60
2023/12/18 09:20:14;;;;;;;6.22;2.25;;;;;;;;;;5013060;28;20073;-53
2023/12/18 09:23:05;;;;;;;10.52;2.30;;;;;;;;;;5013077;28;20049;-52
2023/12/18 09:25:56;;;;;;;11.95;2.47;;;;;;;;;;5013089;28;20059;-53
2023/12/18 09:28:43;;;;;;;13.98;3.03;;;;;;;;;;5013214;28;20111;-63
2023/12/18 09:31:37;;;;;;;11.15;2.70;;;;;;;;;;5014092;28;20608;-54
2023/12/18 09:34:24;;;;;;;14.27;2.67;;;;;;;;;;5013700;28;20477;-49
2023/12/18 09:37:25;;;;;;;6.40;2.30;;;;;;;;;;5012452;28;20055;-53
2023/12/18 09:40:19;;;;;;;13.25;2.13;;;;;;;;;;5015247;28;20050;-54
2023/12/18 09:43:17;;;;;;;9.40;2.05;;;;;;;;;;5015906;28;20053;-58
2023/12/18 09:46:11;;;;;;;5.25;1.95;;;;;;;;;;5012811;28;20119;-62
2023/12/18 09:48:58;;;;;;;6.35;1.70;;;;;;;;;;5016246;28;20049;-63
2023/12/18 09:51:54;;;;;;;2.30;1.58;;;;;;;;;;5014560;28;20072;-63
2023/12/18 09:54:42;;;;;;;4.78;2.03;;;;;;;;;;5014825;28;20065;-63
2023/12/18 09:57:36;;;;;;;10.38;2.08;;;;;;;;;;5019683;28;20038;-60
2023/12/18 10:00:24;;;;;;;4.53;1.88;;;;;;;;;;5022363;28;20042;-70
2023/12/18 10:03:18;;;;;;;4.05;1.70;;;;;;;;;;5020571;28;20049;-69
2023/12/18 10:06:05;;;;;;;5.90;2.10;;;;;;;;;;5015993;28;20504;-69
2023/12/18 10:09:00;;;;;;;3.33;1.70;;;;;;;;;;5012698;28;20042;-70
2023/12/18 10:11:48;;;;;;;4.25;1.70;;;;;;;;;;5014106;28;20493;-69
2023/12/18 10:14:42;;;;;;;2.38;1.27;;;;;;;;;;5017753;28;20037;-63
2023/12/18 10:17:30;;;;;;;3.22;1.50;;;;;;;;;;5017276;28;20041;-63
2023/12/18 10:20:23;;;;;;;1.98;1.20;;;;;;;;;;5016655;28;20053;-63
2023/12/18 10:23:12;;;;;;;4.18;1.15;;;;;;;;;;5015828;28;20049;-63
2023/12/18 10:26:06;;;;;;;2.63;1.70;;;;;;;;;;5015571;28;20046;-62
2023/12/18 10:28:53;;;;;;;3.40;1.58;;;;;;;;;;5017860;28;20519;-56
2023/12/18 10:31:47;;;;;;;4.13;1.40;;;;;;;;;;5017257;28;20064;-57
2023/12/18 10:34:36;;;;;;;1.83;1.08;;;;;;;;;;5017376;28;20504;-55
2023/12/18 10:37:37;;;;;;;3.00;1.00;;;;;;;;;;5015851;28;20045;-57
2023/12/18 10:40:38;;;;;;;1.55;0.70;;;;;;;;;;5013836;28;20206;-56
2023/12/18 10:43:36;;;;;;;4.18;0.77;;;;;;;;;;5016772;28;20456;-49
2023/12/18 10:46:21;;;;;;;1.20;0.88;;;;;;;;;;5015539;28;20046;-52
2023/12/18 10:49:16;;;;;;;2.00;0.82;;;;;;;;;;5020288;28;20057;-53
2023/12/18 10:52:04;;;;;;;2.60;0.73;;;;;;;;;;5016098;28;20042;-52
2023/12/18 10:55:05;;;;;;;2.58;0.85;;;;;;;;;;5016395;28;20096;-54
2023/12/18 10:57:52;;;;;;;2.00;0.63;;;;;;;;;;5017659;28;20151;-52
2023/12/18 11:00:46;;;;;;;0.73;0.60;;;;;;;;;;5015407;28;20368;-52
2023/12/18 11:03:36;;;;;;;3.42;0.60;;;;;;;;;;5017985;28;20065;-54
2023/12/18 11:06:30;;;;;;;1.50;0.60;;;;;;;;;;5017134;28;20049;-50
2023/12/18 11:09:17;;;;;;;2.75;0.52;;;;;;;;;;5014964;28;20077;-51
2023/12/18 11:12:12;;;;;;;1.52;0.80;;;;;;;;;;5014589;28;20416;-63
2023/12/18 11:15:29;;;;;;;1.05;0.70;;;;;;;;;;5015499;28;20049;-63
2023/12/18 11:18:42;;;;;;;3.10;1.10;;;;;;;;;;5013260;28;20053;-63
2023/12/18 11:21:49;;;;;;;7.22;1.20;;;;;;;;;;5013155;28;20528;-60
2023/12/18 11:24:46;;;;;;;0.98;0.80;;;;;;;;;;5014284;28;20049;-59
2023/12/18 11:27:32;;;;;;;1.55;0.98;;;;;;;;;;5016764;28;20049;-69
2023/12/18 11:30:30;;;;;;;3.85;0.85;;;;;;;;;;5010370;28;20049;-69
2023/12/18 11:33:17;;;;;;;2.83;1.02;;;;;;;;;;5013803;28;20056;-69
2023/12/18 11:36:17;;;;;;;2.58;1.08;;;;;;;;;;5016413;28;20056;-68
2023/12/18 11:39:09;;;;;;;2.03;0.82;;;;;;;;;;5010851;28;20549;-69
2023/12/18 11:42:03;;;;;;;2.67;0.90;;;;;;;;;;5014957;28;20057;-63
2023/12/18 11:44:53;;;;;;;2.70;0.90;;;;;;;;;;5012253;28;20429;-62
2023/12/18 11:47:46;;;;;;;3.10;0.88;;;;;;;;;;5009496;28;20092;-63
2023/12/18 11:50:35;;;;;;;3.75;1.33;;;;;;;;;;5015536;28;20681;-60
2023/12/18 11:53:36;;;;;;;3.10;1.00;;;;;;;;;;5010385;28;20425;-63
2023/12/18 11:56:39;;;;;;;1.02;0.63;;;;;;;;;;5011689;28;20045;-62
2023/12/18 11:59:34;;;;;;;4.97;1.23;;;;;;;;;;5012044;28;20042;-64
2023/12/18 12:02:29;;;;;;;1.65;0.98;;;;;;;;;;5013209;28;20127;-63
2023/12/18 12:05:16;;;;;;;4.13;1.00;;;;;;;;;;5014997;28;20053;-64
2023/12/18 12:08:10;;;;;;;2.08;0.80;;;;;;;;;;5013617;28;20504;-62
2023/12/18 12:10:57;;;;;;;4.43;0.80;;;;;;;;;;5004302;28;20042;-61
2023/12/18 12:13:54;;;;;;;4.00;0.95;;;;;;;;;;5008865;28;20061;-60
2023/12/18 12:16:41;;;;;;;7.10;1.27;;;;;;;;;;5017065;28;20049;-60
2023/12/18 12:19:35;;;;;;;5.25;1.30;;;;;;;;;;5017665;28;20600;-55
2023/12/18 12:22:22;;;;;;;2.97;1.05;;;;;;;;;;5012652;28;20053;-60
2023/12/18 12:25:16;;;;;;;6.90;0.90;;;;;;;;;;5014352;28;20042;-59
2023/12/18 12:28:03;;;;;;;5.25;1.00;;;;;;;;;;5004458;28;20119;-59
2023/12/18 12:30:57;;;;;;;5.25;1.27;;;;;;;;;;5018194;28;20490;-59
2023/12/18 12:33:46;;;;;;;7.30;1.50;;;;;;;;;;5014207;28;20532;-59
2023/12/18 12:36:39;;;;;;;6.53;1.23;;;;;;;;;;5014315;28;20045;-60
2023/12/18 12:39:33;;;;;;;11.30;1.73;;;;;;;;;;4995393;28;20149;-62
2023/12/18 12:42:27;;;;;;;8.73;1.35;;;;;;;;;;4991452;28;20050;-63
2023/12/18 12:45:15;;;;;;;8.68;1.52;;;;;;;;;;4995452;28;20143;-62
2023/12/18 12:48:08;;;;;;;5.32;1.15;;;;;;;;;;4990376;28;20552;-53
2023/12/18 12:50:58;;;;;;;4.18;1.60;;;;;;;;;;4997393;28;20444;-59
2023/12/18 12:53:52;;;;;;;7.18;1.75;;;;;;;;;;4995714;28;20061;-59
2023/12/18 12:56:39;;;;;;;2.95;1.15;;;;;;;;;;4994268;28;20038;-59
2023/12/18 12:59:33;;;;;;;7.43;1.17;;;;;;;;;;4997004;28;20160;-59
2023/12/18 13:02:21;;;;;;;5.97;1.20;;;;;;;;;;4989798;28;20109;-59
2023/12/18 13:05:15;;;;;;;3.78;1.10;;;;;;;;;;4996337;28;20349;-59
2023/12/18 13:08:02;;;;;;;2.75;0.90;;;;;;;;;;4996475;28;20046;-63
2023/12/18 13:10:56;;;;;;;2.28;1.00;;;;;;;;;;4993778;28;20038;-63
2023/12/18 13:13:43;;;;;;;9.10;1.45;;;;;;;;;;4999687;28;20537;-63
2023/12/18 13:16:41;;;;;;;4.07;1.10;;;;;;;;;;4997551;28;20051;-63
2023/12/18 13:19:35;;;;;;;9.00;1.58;;;;;;;;;;4996774;28;20061;-59
2023/12/18 13:22:41;;;;;;;6.47;1.40;;;;;;;;;;4995081;28;21064;-59
2023/12/18 13:25:30;;;;;;;6.15;1.35;;;;;;;;;;4999532;28;20314;-59
2023/12/18 13:28:23;;;;;;;4.93;1.35;;;;;;;;;;4991160;28;20141;-59
2023/12/18 13:31:13;;;;;;;7.38;1.65;;;;;;;;;;4999056;28;20060;-58
2023/12/18 13:34:07;;;;;;;3.00;1.27;;;;;;;;;;5003422;28;20109;-63
2023/12/18 13:36:55;;;;;;;8.02;1.75;;;;;;;;;;5000122;28;20056;-63
2023/12/18 13:39:48;;;;;;;7.15;2.22;;;;;;;;;;5000578;28;20053;-62
2023/12/18 13:42:35;;;;;;;5.15;1.25;;;;;;;;;;5000227;28;20046;-64
2023/12/18 13:45:29;;;;;;;7.57;1.85;;;;;;;;;;5002613;28;20058;-62
2023/12/18 13:48:16;;;;;;;4.22;1.30;;;;;;;;;;4999844;28;20041;-60
2023/12/18 13:51:10;;;;;;;4.47;1.17;;;;;;;;;;5000642;28;20056;-60
2023/12/18 13:53:57;;;;;;;5.03;1.30;;;;;;;;;;4998330;28;20049;-60
2023/12/18 13:56:51;;;;;;;6.20;1.73;;;;;;;;;;4998453;28;20100;-60
2023/12/18 13:59:38;;;;;;;3.83;1.20;;;;;;;;;;5000580;28;20050;-60
2023/12/18 14:02:33;;;;;;;6.88;1.80;;;;;;;;;;4999348;28;20096;-69
2023/12/18 14:05:26;;;;;;;4.85;1.40;;;;;;;;;;4998562;28;20592;-69
2023/12/18 14:08:13;;;;;;;7.05;2.13;;;;;;;;;;5000076;28;20057;-69
2023/12/18 14:11:07;;;;;;;6.53;1.73;;;;;;;;;;5001951;28;20069;-70
2023/12/18 14:13:54;;;;;;;4.20;1.50;;;;;;;;;;5002733;28;20128;-60
2023/12/18 14:16:48;;;;;;;6.97;1.70;;;;;;;;;;5002099;28;20058;-59
2023/12/18 14:19:35;;;;;;;7.95;1.90;;;;;;;;;;5000234;28;20054;-60
2023/12/18 14:22:29;;;;;;;3.53;1.40;;;;;;;;;;5001267;28;20129;-60
2023/12/18 14:25:16;;;;;;;4.90;1.30;;;;;;;;;;5001141;28;20093;-60
2023/12/18 14:28:10;;;;;;;3.83;1.17;;;;;;;;;;4999372;28;20046;-59
2023/12/18 14:30:57;;;;;;;6.13;1.90;;;;;;;;;;5001068;28;20112;-60
2023/12/18 14:33:51;;;;;;;6.22;2.00;;;;;;;;;;4999170;28;20057;-60
2023/12/18 14:36:39;;;;;;;5.63;1.60;;;;;;;;;;4998356;28;20046;-60
2023/12/18 14:39:40;;;;;;;5.60;1.75;;;;;;;;;;5001481;28;20041;-60
2023/12/18 14:42:34;;;;;;;7.60;2.22;;;;;;;;;;4998213;28;20037;-62
2023/12/18 14:45:21;;;;;;;6.38;2.22;;;;;;;;;;4996562;28;20046;-57
2023/12/18 14:48:15;;;;;;;10.23;2.40;;;;;;;;;;4995353;28;20046;-51
2023/12/18 14:51:03;;;;;;;6.10;2.70;;;;;;;;;;5000668;28;20453;-57
2023/12/18 14:53:56;;;;;;;6.28;2.45;;;;;;;;;;4996630;28;20524;-55
2023/12/18 14:56:43;;;;;;;8.02;2.50;;;;;;;;;;4995798;28;20050;-57
2023/12/18 14:59:37;;;;;;;6.93;2.50;;;;;;;;;;4997762;28;20319;-69
2023/12/18 15:02:25;;;;;;;7.35;2.22;;;;;;;;;;4994955;28;20054;-70
2023/12/18 15:05:18;;;;;;;5.30;2.10;;;;;;;;;;4995188;28;20461;-70
2023/12/18 15:08:05;;;;;;;4.93;2.58;;;;;;;;;;4998455;28;20567;-70
2023/12/18 15:10:59;;;;;;;5.20;2.10;;;;;;;;;;5000541;28;21175;-56
2023/12/18 15:13:46;;;;;;;6.90;2.30;;;;;;;;;;4994381;28;20043;-63
2023/12/18 15:16:40;;;;;;;8.10;2.15;;;;;;;;;;4998213;28;20616;-63
2023/12/18 15:19:27;;;;;;;6.32;2.20;;;;;;;;;;5002471;28;20045;-63
2023/12/18 15:22:21;;;;;;;3.63;1.83;;;;;;;;;;4997790;28;20841;-63
2023/12/18 15:25:15;;;;;;;2.35;1.45;;;;;;;;;;4998095;28;20042;-63
2023/12/18 15:28:09;;;;;;;2.38;1.30;;;;;;;;;;4999024;28;20132;-71
2023/12/18 15:31:03;;;;;;;1.00;0.93;;;;;;;;;;4996584;28;20050;-71
2023/12/18 15:33:57;;;;;;;1.73;1.17;;;;;;;;;;4995490;28;20136;-72
2023/12/18 15:36:50;;;;;;;1.70;1.10;;;;;;;;;;4996693;28;20521;-71
2023/12/18 15:39:45;;;;;;;1.70;1.20;;;;;;;;;;4995950;28;20053;-62
2023/12/18 15:42:39;;;;;;;1.63;1.20;;;;;;;;;;4996659;28;20060;-61
2023/12/18 15:45:25;;;;;;;1.40;1.10;;;;;;;;;;4994986;28;20100;-60
2023/12/18 15:48:19;;;;;;;2.05;1.20;;;;;;;;;;4994879;28;20050;-60
2023/12/18 15:51:07;;;;;;;1.50;1.40;;;;;;;;;;4996460;28;20632;-60
2023/12/18 15:54:00;;;;;;;2.47;1.30;;;;;;;;;;4996424;28;20049;-60
2023/12/18 15:56:47;;;;;;;3.55;1.48;;;;;;;;;;4996706;28;20157;-62
2023/12/18 15:59:41;;;;;;;1.98;1.40;;;;;;;;;;4998646;28;20050;-62
2023/12/18 16:02:28;;;;;;;3.33;1.92;;;;;;;;;;4996054;28;20053;-62
2023/12/18 16:05:22;;;;;;;1.60;1.40;;;;;;;;;;4997602;28;20188;-61
2023/12/18 16:08:10;;;;;;;3.55;1.67;;;;;;;;;;4994982;28;20042;-62
2023/12/18 16:11:03;;;;;;;2.42;1.40;;;;;;;;;;4997018;28;20111;-63
2023/12/18 16:13:50;;;;;;;2.90;1.52;;;;;;;;;;4998347;28;20147;-62
2023/12/18 16:16:46;;;;;;;1.88;1.48;;;;;;;;;;4998952;28;20482;-63
2023/12/18 16:19:33;;;;;;;2.00;1.40;;;;;;;;;;4995127;28;20053;-62
2023/12/18 16:22:26;;;;;;;3.20;1.80;;;;;;;;;;4998765;28;20493;-62
2023/12/18 16:25:20;;;;;;;2.08;1.33;;;;;;;;;;5000336;28;20049;-61
2023/12/18 16:28:14;;;;;;;2.05;1.58;;;;;;;;;;5002125;28;20038;-61
2023/12/18 16:31:08;;;;;;;2.47;1.60;;;;;;;;;;4999160;28;20054;-61
2023/12/18 16:34:10;;;;;;;2.08;1.50;;;;;;;;;;4995783;28;20140;-61
2023/12/18 16:37:04;;;;;;;2.92;1.73;;;;;;;;;;4995626;28;20061;-71
2023/12/18 16:39:58;;;;;;;3.58;1.50;;;;;;;;;;4994475;28;20504;-59
2023/12/18 16:42:52;;;;;;;1.88;1.40;;;;;;;;;;4993179;28;20077;-59
2023/12/18 16:45:39;;;;;;;2.88;1.80;;;;;;;;;;4993781;28;20514;-59
2023/12/18 16:48:34;;;;;;;4.15;2.03;;;;;;;;;;4991738;28;20049;-59